createdAt,value
2019-04-07T00:00:41.103Z,73.17
2019-04-07T00:03:12.923Z,72.97
2019-04-07T00:05:44.839Z,73.22
2019-04-07T00:08:16.887Z,73.57
2019-04-07T00:10:48.810Z,73.66
2019-04-07T00:13:22.186Z,73.82
2019-04-07T00:15:53.991Z,73.90
2019-04-07T00:18:25.878Z,73.43
2019-04-07T00:20:57.821Z,73.37
2019-04-07T00:23:30.802Z,73.88
2019-04-07T00:26:02.574Z,74.31
2019-04-07T00:28:34.866Z,74.74
2019-04-07T00:31:06.746Z,74.31
2019-04-07T00:33:38.730Z,74.12
2019-04-07T00:36:10.539Z,74.15
2019-04-07T00:38:43.699Z,74.31
2019-04-07T00:41:15.908Z,73.93
2019-04-07T00:43:47.626Z,73.66
2019-04-07T00:46:19.372Z,73.23
2019-04-07T00:48:51.395Z,73.88
2019-04-07T00:51:23.224Z,73.74
2019-04-07T00:53:54.979Z,73.36
2019-04-07T00:56:26.975Z,74.13
2019-04-07T00:58:58.968Z,74.24
2019-04-07T01:01:30.789Z,74.42
2019-04-07T01:04:03.562Z,74.71
2019-04-07T01:06:35.362Z,74.96
2019-04-07T01:09:10.316Z,75.20
2019-04-07T01:11:42.181Z,75.27
2019-04-07T01:14:14.003Z,74.73
2019-04-07T01:16:46.135Z,74.90
2019-04-07T01:19:17.953Z,74.50
2019-04-07T01:21:49.990Z,74.75
2019-04-07T01:24:21.905Z,74.58
2019-04-07T01:26:54.709Z,74.72
2019-04-07T01:29:26.687Z,74.55
2019-04-07T01:31:59.369Z,74.85
2019-04-07T01:34:31.550Z,74.37
2019-04-07T01:37:03.510Z,74.79
2019-04-07T01:39:35.603Z,75.01
2019-04-07T01:42:29.009Z,75.58
2019-04-07T01:45:32.143Z,75.72
2019-04-07T01:48:21.739Z,75.35
2019-04-07T01:51:12.028Z,75.73
2019-04-07T01:54:17.820Z,75.75
2019-04-07T01:57:12.666Z,76.22
2019-04-07T02:00:03.418Z,76.09
2019-04-07T02:02:56.949Z,76.03
2019-04-07T02:06:01.525Z,76.28
2019-04-07T02:08:49.175Z,75.80
2019-04-07T02:11:42.892Z,75.30
2019-04-07T02:14:21.351Z,75.42
2019-04-07T02:17:02.128Z,75.36
2019-04-07T02:19:44.901Z,75.29
2019-04-07T02:22:34.738Z,75.27
2019-04-07T02:25:25.339Z,75.63
2019-04-07T02:28:31.096Z,76.12
2019-04-07T02:31:40.307Z,75.94
2019-04-07T02:34:36.053Z,74.73
2019-04-07T02:37:36.281Z,74.98
2019-04-07T02:40:28.877Z,75.14
2019-04-07T02:43:09.220Z,75.04
2019-04-07T02:45:54.245Z,75.68
2019-04-07T02:49:00.430Z,75.12
2019-04-07T02:51:49.732Z,74.59
2019-04-07T02:54:42.117Z,74.37
2019-04-07T02:57:33.996Z,72.30
2019-04-07T03:00:31.806Z,71.16
2019-04-07T03:03:25.714Z,71.33
2019-04-07T03:06:05.099Z,72.69
2019-04-07T03:08:57.007Z,72.90
2019-04-07T03:11:47.097Z,73.83
2019-04-07T03:14:26.517Z,75.11
2019-04-07T03:17:16.329Z,75.75
2019-04-07T03:19:56.645Z,75.17
2019-04-07T03:22:57.435Z,75.34
2019-04-07T03:25:40.518Z,76.24
2019-04-07T03:28:25.913Z,75.94
2019-04-07T03:31:06.152Z,75.64
2019-04-07T03:34:15.970Z,76.48
2019-04-07T03:37:26.263Z,76.06
2019-04-07T03:40:02.556Z,77.11
2019-04-07T03:42:43.615Z,77.19
2019-04-07T03:45:50.044Z,77.87
2019-04-07T03:48:35.539Z,79.00
2019-04-07T03:51:24.843Z,79.87
2019-04-07T03:54:05.591Z,79.73
2019-04-07T03:56:56.810Z,79.68
2019-04-07T03:59:44.547Z,77.33
2019-04-07T04:02:34.688Z,75.51
2019-04-07T04:05:29.584Z,75.52
2019-04-07T04:08:11.319Z,75.57
2019-04-07T04:10:52.398Z,75.22
2019-04-07T04:13:30.696Z,76.79
2019-04-07T04:16:24.939Z,77.14
2019-04-07T04:18:57.702Z,76.75
2019-04-07T04:21:29.401Z,76.54
2019-04-07T04:24:01.183Z,76.89
2019-04-07T04:26:32.925Z,76.95
2019-04-07T04:29:05.631Z,77.09
2019-04-07T04:31:37.597Z,77.25
2019-04-07T04:34:09.914Z,76.68
2019-04-07T04:36:41.714Z,76.72
2019-04-07T04:39:18.203Z,77.14
2019-04-07T04:41:46.988Z,77.89
2019-04-07T04:44:18.795Z,78.88
2019-04-07T04:46:50.621Z,78.82
2019-04-07T04:49:23.198Z,78.97
2019-04-07T04:55:18.884Z,79.29
2019-04-07T05:01:32.262Z,78.40
2019-04-07T05:04:04.944Z,79.74
2019-04-07T05:06:36.972Z,79.99
2019-04-07T05:09:09.192Z,77.87
2019-04-07T05:11:41.710Z,77.36
2019-04-07T05:14:14.085Z,76.92
2019-04-07T05:16:46.048Z,77.03
2019-04-07T05:19:18.208Z,76.46
2019-04-07T05:21:50.521Z,76.54
2019-04-07T05:24:22.723Z,76.58
2019-04-07T05:26:55.089Z,77.18
2019-04-07T05:29:27.545Z,77.42
2019-04-07T05:32:00.181Z,77.36
2019-04-07T05:43:11.885Z,78.58
2019-04-07T05:45:44.036Z,78.79
2019-04-07T05:48:18.515Z,79.25
2019-04-07T05:50:49.280Z,79.14
2019-04-07T05:53:21.004Z,79.20
2019-04-07T05:55:54.150Z,79.65
2019-04-07T05:58:26.817Z,80.06
2019-04-07T06:00:58.841Z,79.98
2019-04-07T06:03:30.871Z,79.96
2019-04-07T06:06:02.958Z,79.99
2019-04-07T06:08:38.693Z,79.97
2019-04-07T06:11:08.288Z,79.23
2019-04-07T06:13:43.837Z,79.82
2019-04-07T06:16:14.173Z,80.94
2019-04-07T06:18:46.596Z,80.18
2019-04-07T06:21:18.776Z,80.73
2019-04-07T06:23:50.830Z,80.95
2019-04-07T06:26:23.042Z,80.75
2019-04-07T06:28:58.498Z,81.09
2019-04-07T06:31:31.358Z,81.10
2019-04-07T06:34:02.048Z,80.18
2019-04-07T06:36:34.056Z,81.01
2019-04-07T06:39:09.523Z,82.54
2019-04-07T06:41:42.141Z,81.38
2019-04-07T06:44:19.449Z,81.01
2019-04-07T06:47:07.611Z,78.84
2019-04-07T06:49:54.928Z,80.32
2019-04-07T06:52:48.843Z,78.66
2019-04-07T06:55:40.699Z,77.68
2019-04-07T06:58:41.744Z,77.66
2019-04-07T07:01:32.511Z,77.16
2019-04-07T07:04:17.963Z,78.26
2019-04-07T07:07:07.681Z,78.23
2019-04-07T07:09:50.239Z,78.58
2019-04-07T07:12:41.116Z,76.16
2019-04-07T07:15:35.344Z,75.79
2019-04-07T07:18:15.425Z,76.55
2019-04-07T07:21:05.169Z,75.20
2019-04-07T07:23:39.755Z,75.00
2019-04-07T07:26:15.972Z,74.92
2019-04-07T07:28:48.063Z,74.24
2019-04-07T07:31:22.796Z,74.13
2019-04-07T07:33:53.977Z,73.47
2019-04-07T07:36:27.399Z,73.05
2019-04-07T07:39:02.116Z,72.89
2019-04-07T07:41:34.520Z,72.28
2019-04-07T07:44:08.635Z,72.52
2019-04-07T07:46:40.060Z,71.32
2019-04-07T07:49:12.466Z,71.65
2019-04-07T07:51:47.347Z,71.11
2019-04-07T07:54:18.713Z,71.92
2019-04-07T07:56:51.660Z,72.22
2019-04-07T07:59:24.955Z,72.14
2019-04-07T08:01:56.745Z,71.25
2019-04-07T08:04:29.141Z,70.93
2019-04-07T08:07:02.631Z,70.79
2019-04-07T08:09:34.523Z,69.11
2019-04-07T08:12:06.400Z,68.33
2019-04-07T08:14:38.268Z,66.52
2019-04-07T08:17:12.291Z,65.97
2019-04-07T08:19:45.360Z,65.92
2019-04-07T08:22:27.444Z,65.99
2019-04-07T08:24:52.121Z,64.40
2019-04-07T08:27:24.622Z,65.78
2019-04-07T08:29:58.299Z,64.87
2019-04-07T08:32:32.275Z,64.70
2019-04-07T08:35:05.630Z,64.49
2019-04-07T08:37:38.362Z,64.99
2019-04-07T08:40:10.913Z,63.69
2019-04-07T08:42:43.186Z,63.56
2019-04-07T08:45:15.562Z,64.34
2019-04-07T08:47:49.599Z,64.18
2019-04-07T08:50:22.643Z,63.22
2019-04-07T08:52:55.349Z,63.61
2019-04-07T08:55:28.242Z,63.15
2019-04-07T08:58:02.495Z,63.15
2019-04-07T09:00:37.235Z,63.27
2019-04-07T09:03:13.694Z,63.60
2019-04-07T09:05:43.207Z,62.29
2019-04-07T09:08:16.073Z,63.54
2019-04-07T09:11:06.054Z,63.61
2019-04-07T09:13:38.481Z,62.32
2019-04-07T09:16:36.899Z,61.54
2019-04-07T09:19:28.771Z,61.79
2019-04-07T09:22:24.099Z,59.08
2019-04-07T09:25:19.397Z,62.97
2019-04-07T09:28:06.492Z,60.19
2019-04-07T09:31:03.139Z,59.62
2019-04-07T09:33:43.189Z,57.68
2019-04-07T09:36:33.637Z,57.75
2019-04-07T09:39:14.484Z,59.88
2019-04-07T09:42:11.196Z,60.00
2019-04-07T09:45:09.851Z,59.24
2019-04-07T09:47:52.136Z,59.57
2019-04-07T09:50:37.559Z,59.25
2019-04-07T09:53:27.369Z,58.51
2019-04-07T09:56:24.134Z,58.92
2019-04-07T09:59:06.696Z,59.31
2019-04-07T10:01:57.146Z,58.53
2019-04-07T10:04:50.812Z,58.83
2019-04-07T10:07:43.632Z,59.16
2019-04-07T10:10:41.486Z,57.58
2019-04-07T10:13:26.057Z,58.59
2019-04-07T10:16:10.531Z,58.10
2019-04-07T10:19:01.915Z,58.74
2019-04-07T10:21:47.505Z,57.73
2019-04-07T10:24:41.596Z,56.98
2019-04-07T10:27:27.464Z,57.66
2019-04-07T10:30:20.036Z,53.81
2019-04-07T10:33:10.999Z,54.39
2019-04-07T10:36:01.731Z,53.71
2019-04-07T10:38:56.361Z,55.74
2019-04-07T10:41:48.238Z,53.90
2019-04-07T10:44:29.321Z,55.61
2019-04-07T10:47:29.260Z,54.79
2019-04-07T10:50:19.031Z,53.43
2019-04-07T10:53:00.281Z,54.62
2019-04-07T10:55:39.494Z,53.77
2019-04-07T10:58:24.829Z,55.18
2019-04-07T11:01:15.649Z,53.69
2019-04-07T11:04:12.782Z,54.78
2019-04-07T11:07:04.103Z,54.17
2019-04-07T11:09:58.932Z,51.72
2019-04-07T11:12:46.899Z,54.08
2019-04-07T11:15:50.892Z,53.34
2019-04-07T11:18:34.666Z,51.13
2019-04-07T11:21:16.486Z,51.48
2019-04-07T11:24:13.048Z,54.62
2019-04-07T11:27:03.035Z,55.22
2019-04-07T11:29:52.857Z,55.59
2019-04-07T11:32:36.031Z,53.21
2019-04-07T11:35:22.217Z,53.15
2019-04-07T11:38:13.681Z,54.87
2019-04-07T11:41:05.846Z,51.02
2019-04-07T11:43:50.070Z,51.87
2019-04-07T11:46:49.316Z,51.52
2019-04-07T11:49:44.758Z,52.09
2019-04-07T11:52:22.385Z,52.89
2019-04-07T11:55:01.991Z,53.02
2019-04-07T11:57:55.635Z,53.83
2019-04-07T12:00:30.031Z,52.61
2019-04-07T12:03:13.692Z,53.35
2019-04-07T12:06:07.633Z,52.69
2019-04-07T12:09:08.769Z,51.89
2019-04-07T12:11:52.620Z,50.45
2019-04-07T12:14:41.704Z,48.84
2019-04-07T12:17:39.586Z,50.26
2019-04-07T12:20:30.952Z,49.86
2019-04-07T12:23:23.385Z,47.81
2019-04-07T12:26:18.907Z,48.94
2019-04-07T12:29:16.704Z,45.35
2019-04-07T12:31:59.723Z,48.13
2019-04-07T12:34:58.572Z,48.17
2019-04-07T12:37:53.147Z,49.31
2019-04-07T12:41:12.535Z,50.07
2019-04-07T12:43:52.276Z,49.38
2019-04-07T12:46:39.602Z,49.44
2019-04-07T12:49:44.967Z,48.67
2019-04-07T12:52:50.166Z,48.94
2019-04-07T12:55:40.459Z,46.87
2019-04-07T12:58:24.424Z,48.36
2019-04-07T13:01:28.180Z,49.90
2019-04-07T13:04:21.702Z,48.37
2019-04-07T13:07:01.325Z,48.36
2019-04-07T13:09:51.723Z,47.05
2019-04-07T13:12:48.349Z,48.58
2019-04-07T13:15:32.326Z,47.72
2019-04-07T13:18:22.067Z,47.47
2019-04-07T13:21:22.395Z,47.62
2019-04-07T13:24:28.195Z,48.01
2019-04-07T13:27:04.097Z,46.57
2019-04-07T13:30:05.860Z,47.87
2019-04-07T13:32:56.679Z,44.78
2019-04-07T13:35:46.421Z,46.61
2019-04-07T13:38:46.239Z,48.41
2019-04-07T13:41:38.003Z,48.63
2019-04-07T13:44:08.953Z,44.74
2019-04-07T13:47:09.465Z,47.02
2019-04-07T13:49:57.403Z,47.75
2019-04-07T13:52:37.152Z,48.32
2019-04-07T13:55:20.428Z,47.34
2019-04-07T13:58:15.018Z,48.90
2019-04-07T14:01:04.827Z,48.90
2019-04-07T14:04:04.492Z,49.57
2019-04-07T14:07:04.898Z,48.70
2019-04-07T14:09:49.708Z,49.99
2019-04-07T14:12:41.140Z,50.86
2019-04-07T14:15:19.402Z,50.46
2019-04-07T14:18:09.089Z,50.45
2019-04-07T14:21:03.081Z,50.09
2019-04-07T14:23:44.635Z,49.31
2019-04-07T14:26:43.471Z,51.05
2019-04-07T14:29:34.873Z,50.57
2019-04-07T14:32:17.335Z,51.10
2019-04-07T14:35:10.529Z,50.32
2019-04-07T14:38:00.398Z,51.72
2019-04-07T14:40:42.351Z,49.35
2019-04-07T14:43:42.136Z,50.85
2019-04-07T14:46:37.782Z,50.89
2019-04-07T14:49:41.146Z,50.85
2019-04-07T14:52:21.148Z,51.22
2019-04-07T14:55:10.952Z,50.60
2019-04-07T14:58:01.754Z,50.79
2019-04-07T15:00:52.573Z,51.06
2019-04-07T15:03:24.553Z,51.83
2019-04-07T15:05:58.206Z,51.50
2019-04-07T15:08:49.806Z,52.00
2019-04-07T15:11:33.613Z,51.75
2019-04-07T15:14:06.252Z,51.36
2019-04-07T15:16:39.290Z,51.39
2019-04-07T15:19:11.891Z,51.71
2019-04-07T15:21:44.172Z,51.31
2019-04-07T15:24:16.549Z,49.94
2019-04-07T15:26:50.109Z,49.42
2019-04-07T15:29:23.199Z,50.46
2019-04-07T15:31:55.318Z,51.28
2019-04-07T15:34:27.445Z,51.13
2019-04-07T15:37:00.734Z,50.59
2019-04-07T15:39:33.007Z,50.62
2019-04-07T15:42:05.244Z,51.00
2019-04-07T15:44:39.635Z,50.16
2019-04-07T15:47:12.412Z,51.19
2019-04-07T15:49:44.328Z,51.25
2019-04-07T15:52:16.366Z,51.75
2019-04-07T15:54:48.990Z,51.77
2019-04-07T15:57:22.102Z,50.77
2019-04-07T15:59:54.668Z,51.22
2019-04-07T16:02:27.451Z,50.89
2019-04-07T16:05:02.286Z,51.39
2019-04-07T16:07:33.861Z,52.24
2019-04-07T16:10:06.783Z,52.23
2019-04-07T16:12:47.421Z,52.32
2019-04-07T16:15:15.823Z,52.19
2019-04-07T16:17:47.584Z,49.55
2019-04-07T16:20:25.131Z,50.51
2019-04-07T16:22:55.460Z,49.69
2019-04-07T16:25:29.005Z,49.70
2019-04-07T16:28:02.268Z,50.90
2019-04-07T16:30:34.298Z,51.50
2019-04-07T16:33:06.289Z,51.32
2019-04-07T16:35:38.185Z,50.80
2019-04-07T16:38:10.087Z,50.80
2019-04-07T16:40:42.452Z,48.93
2019-04-07T16:43:17.500Z,49.70
2019-04-07T16:45:49.300Z,49.40
2019-04-07T16:48:22.836Z,49.51
2019-04-07T16:50:55.707Z,49.24
2019-04-07T16:53:28.087Z,49.45
2019-04-07T16:56:00.852Z,49.93
2019-04-07T16:58:35.360Z,50.15
2019-04-07T17:01:06.723Z,49.41
2019-04-07T17:03:39.644Z,49.66
2019-04-07T17:06:12.729Z,49.38
2019-04-07T17:08:45.416Z,49.39
2019-04-07T17:11:18.067Z,48.83
2019-04-07T17:13:50.305Z,49.21
2019-04-07T17:16:24.642Z,49.45
2019-04-07T17:18:57.113Z,49.46
2019-04-07T17:21:29.949Z,49.97
2019-04-07T17:24:02.003Z,50.21
2019-04-07T17:26:37.359Z,50.70
2019-04-07T17:29:08.945Z,51.43
2019-04-07T17:31:41.441Z,51.64
2019-04-07T17:34:14.480Z,51.78
2019-04-07T17:36:49.857Z,52.10
2019-04-07T17:39:49.479Z,52.24
2019-04-07T17:42:25.873Z,52.41
2019-04-07T17:45:14.038Z,52.67
2019-04-07T17:48:08.048Z,52.42
2019-04-07T17:50:53.130Z,52.61
2019-04-07T17:53:45.377Z,52.57
2019-04-07T17:56:40.693Z,52.35
2019-04-07T17:59:54.818Z,51.80
2019-04-07T18:02:36.053Z,52.09
2019-04-07T18:05:34.501Z,52.21
2019-04-07T18:08:22.600Z,52.54
2019-04-07T18:11:20.175Z,53.18
2019-04-07T18:14:22.938Z,53.31
2019-04-07T18:17:13.795Z,53.53
2019-04-07T18:20:01.807Z,53.99
2019-04-07T18:22:53.218Z,54.78
2019-04-07T18:25:33.096Z,57.80
2019-04-07T18:28:31.717Z,56.94
2019-04-07T18:31:23.986Z,54.65
2019-04-07T18:34:06.554Z,54.27
2019-04-07T18:36:57.867Z,54.94
2019-04-07T18:39:54.205Z,56.58
2019-04-07T18:42:32.864Z,56.09
2019-04-07T18:45:18.986Z,55.71
2019-04-07T18:48:09.729Z,55.39
2019-04-07T18:50:51.275Z,55.96
2019-04-07T18:53:57.630Z,55.78
2019-04-07T18:56:45.653Z,55.89
2019-04-07T18:59:39.481Z,55.98
2019-04-07T19:02:21.716Z,56.26
2019-04-07T19:05:18.031Z,56.75
2019-04-07T19:08:17.442Z,56.92
2019-04-07T19:11:15.921Z,57.17
2019-04-07T19:14:25.942Z,57.78
2019-04-07T19:16:58.650Z,57.93
2019-04-07T19:19:49.385Z,58.32
2019-04-07T19:22:51.307Z,59.91
2019-04-07T19:25:31.493Z,59.34
2019-04-07T19:28:28.410Z,57.76
2019-04-07T19:31:28.258Z,56.08
2019-04-07T19:34:37.611Z,56.03
2019-04-07T19:37:31.017Z,55.97
2019-04-07T19:40:14.432Z,56.34
2019-04-07T19:43:05.828Z,56.60
2019-04-07T19:45:54.731Z,56.50
2019-04-07T19:48:42.778Z,56.67
2019-04-07T19:51:39.749Z,57.10
2019-04-07T19:54:33.756Z,57.58
2019-04-07T19:57:22.208Z,57.71
2019-04-07T20:00:00.721Z,57.50
2019-04-07T20:02:59.397Z,57.77
2019-04-07T20:05:52.914Z,57.85
2019-04-07T20:08:45.946Z,58.09
2019-04-07T20:11:33.147Z,58.35
2019-04-07T20:14:14.375Z,58.56
2019-04-07T20:17:18.921Z,58.78
2019-04-07T20:19:59.908Z,59.07
2019-04-07T20:22:43.625Z,59.29
2019-04-07T20:25:37.597Z,59.45
2019-04-07T20:28:21.285Z,59.71
2019-04-07T20:31:08.416Z,59.96
2019-04-07T20:34:05.987Z,60.14
2019-04-07T20:37:02.107Z,60.49
2019-04-07T20:39:39.389Z,60.44
2019-04-07T20:42:31.153Z,60.54
2019-04-07T20:45:18.587Z,60.35
2019-04-07T20:48:06.046Z,60.56
2019-04-07T20:50:48.991Z,60.66
2019-04-07T20:53:38.595Z,60.82
2019-04-07T20:56:25.029Z,60.85
2019-04-07T20:59:16.687Z,60.94
2019-04-07T21:02:12.534Z,61.18
2019-04-07T21:05:22.867Z,61.29
2019-04-07T21:08:22.915Z,61.14
2019-04-07T21:11:13.088Z,61.10
2019-04-07T21:14:03.080Z,61.08
2019-04-07T21:16:46.416Z,61.48
2019-04-07T21:19:38.593Z,61.43
2019-04-07T21:22:35.378Z,61.86
2019-04-07T21:25:30.210Z,62.31
2019-04-07T21:28:24.546Z,62.65
2019-04-07T21:31:19.015Z,62.23
2019-04-07T21:34:07.243Z,62.85
2019-04-07T21:36:58.060Z,63.92
2019-04-07T21:39:51.616Z,64.60
2019-04-07T21:42:42.261Z,64.53
2019-04-07T21:45:33.022Z,64.94
2019-04-07T21:48:22.067Z,64.89
2019-04-07T21:51:15.399Z,64.87
2019-04-07T21:54:16.172Z,64.62
2019-04-07T21:57:17.269Z,64.50
2019-04-07T22:00:10.599Z,65.02
2019-04-07T22:02:53.788Z,65.56
2019-04-07T22:05:45.427Z,66.34
2019-04-07T22:08:24.040Z,66.65
2019-04-07T22:10:55.921Z,66.97
2019-04-07T22:13:28.693Z,66.56
2019-04-07T22:16:02.870Z,67.06
2019-04-07T22:18:36.933Z,67.29
2019-04-07T22:21:07.994Z,67.94
2019-04-07T22:23:40.195Z,68.47
2019-04-07T22:26:16.746Z,67.76
2019-04-07T22:28:45.762Z,67.50
2019-04-07T22:31:23.463Z,69.10
2019-04-07T22:33:57.404Z,69.50
2019-04-07T22:36:29.412Z,69.98
2019-04-07T22:39:02.476Z,69.64
2019-04-07T22:41:36.945Z,69.79
2019-04-07T22:44:09.402Z,70.30
2019-04-07T22:46:41.628Z,70.59
2019-04-07T22:49:13.535Z,70.51
2019-04-07T22:51:47.020Z,70.01
2019-04-07T22:54:18.915Z,69.17
2019-04-07T22:56:50.719Z,68.86
2019-04-07T22:59:23.897Z,69.44
2019-04-07T23:01:55.807Z,70.09
2019-04-07T23:04:27.923Z,71.44
2019-04-07T23:07:00.835Z,70.78
2019-04-07T23:09:33.625Z,69.87
2019-04-07T23:12:05.449Z,69.16
2019-04-07T23:14:37.913Z,68.37
2019-04-07T23:17:09.988Z,67.86
2019-04-07T23:19:41.989Z,69.49
2019-04-07T23:22:13.978Z,70.29
2019-04-07T23:24:45.624Z,71.38
2019-04-07T23:27:18.096Z,72.78
2019-04-07T23:29:50.744Z,74.00
2019-04-07T23:32:23.909Z,75.16
2019-04-07T23:34:55.838Z,76.27
2019-04-07T23:37:27.833Z,77.37
2019-04-07T23:40:00.311Z,78.00
2019-04-07T23:42:32.661Z,78.39
2019-04-07T23:45:05.210Z,78.81
2019-04-07T23:47:37.126Z,78.67
2019-04-07T23:50:09.422Z,78.71
2019-04-07T23:52:41.302Z,79.04
2019-04-07T23:55:13.262Z,79.33
2019-04-07T23:57:45.143Z,78.76
